Time;durP1;ratioP1;P1;durP2;ratioP2;P2;SDS_P1;SDS_P2;PMS_P1;PMS_P2;Temp;Humidity;BMP_temperature;BMP_pressure;BME280_temperature;BME280_humidity;BME280_pressure;Samples;Min_cycle;Max_cycle;Signal;HPM_P1;HPM_P2
2022/09/06 00:02:11;;;;;;;6.00;2.53;;;;;;;14.49;76.14;100038.22;4967714;28;20029;-92
2022/09/06 00:04:37;;;;;;;3.33;2.80;;;;;;;14.60;76.11;100056.06;4967917;28;20018;-92
2022/09/06 00:07:04;;;;;;;4.40;2.60;;;;;;;14.65;76.18;100056.06;4968058;28;20026;-93
2022/09/06 00:09:30;;;;;;;5.47;2.70;;;;;;;14.60;75.51;100036.31;4967333;28;20041;-92
2022/09/06 00:11:55;;;;;;;3.63;2.65;;;;;;;14.81;75.26;100061.41;4994091;28;20073;-92
2022/09/06 00:14:20;;;;;;;4.13;2.70;;;;;;;14.65;75.37;100042.50;5022354;28;20016;-93
2022/09/06 00:16:46;;;;;;;8.73;2.78;;;;;;;14.80;75.57;100049.75;5005365;28;20025;-92
2022/09/06 00:19:11;;;;;;;3.45;2.70;;;;;;;14.81;75.34;100051.34;4981893;28;20042;-93
2022/09/06 00:21:37;;;;;;;8.18;2.40;;;;;;;14.81;75.13;100048.66;4982302;28;20036;-93
2022/09/06 00:24:02;;;;;;;2.80;2.00;;;;;;;14.83;75.45;100045.66;4965912;28;20028;-93
2022/09/06 00:26:28;;;;;;;2.88;2.30;;;;;;;14.81;75.67;100050.56;4981607;28;20026;-93
2022/09/06 00:28:53;;;;;;;4.32;2.30;;;;;;;14.81;75.11;100053.25;4982278;28;20029;-93
2022/09/06 00:31:21;;;;;;;5.40;3.00;;;;;;;14.81;75.02;100043.22;4966890;28;20032;-93
2022/09/06 00:33:47;;;;;;;7.78;2.53;;;;;;;14.89;74.96;100052.69;4982451;28;20030;-93
2022/09/06 00:36:13;;;;;;;6.75;2.55;;;;;;;14.88;75.38;100051.03;4982490;28;20109;-93
2022/09/06 00:38:38;;;;;;;3.95;2.63;;;;;;;14.84;75.15;100045.38;4983729;28;20403;-93
2022/09/06 00:41:05;;;;;;;5.78;2.28;;;;;;;14.72;75.00;100039.50;4985363;28;20022;-93
2022/09/06 00:43:30;;;;;;;4.50;2.25;;;;;;;14.65;74.71;100047.94;4982387;28;20021;-92
2022/09/06 00:45:55;;;;;;;5.05;2.80;;;;;;;14.57;75.39;100039.56;4982794;28;20083;-92
2022/09/06 00:48:21;;;;;;;5.50;2.53;;;;;;;14.51;75.61;100036.03;4982502;28;20087;-92
2022/09/06 00:50:48;;;;;;;4.00;2.38;;;;;;;14.59;75.46;100056.34;4989756;28;20028;-92
2022/09/06 00:53:13;;;;;;;3.03;2.30;;;;;;;14.52;75.42;100045.78;5021692;28;20039;-93
2022/09/06 00:55:40;;;;;;;3.95;2.47;;;;;;;14.49;75.63;100055.28;5021744;28;20025;-93
2022/09/06 00:58:06;;;;;;;3.45;2.30;;;;;;;14.41;76.08;100052.34;5022423;28;20025;-93
2022/09/06 01:00:31;;;;;;;2.92;2.13;;;;;;;14.46;76.04;100055.03;5005446;28;20031;-93
2022/09/06 01:02:57;;;;;;;10.63;3.30;;;;;;;14.29;75.97;100034.50;5021010;28;20024;-93
2022/09/06 01:05:23;;;;;;;7.30;3.13;;;;;;;14.31;76.06;100037.72;5021847;28;20120;-92
2022/09/06 01:08:01;;;;;;;4.20;2.17;;;;;;;14.46;76.00;100052.31;5022419;28;20099;-93
2022/09/06 01:11:05;;;;;;;4.45;2.75;;;;;;;14.55;75.62;100053.38;5055254;28;20116;-92
2022/09/06 01:13:50;;;;;;;5.20;2.40;;;;;;;14.49;76.00;100065.31;5040791;28;20025;-92
2022/09/06 01:16:36;;;;;;;4.20;2.35;;;;;;;14.51;74.95;100041.47;5020999;28;20033;-93
2022/09/06 01:19:16;;;;;;;4.10;2.20;;;;;;;14.66;74.21;100060.38;5005750;28;20044;-93
2022/09/06 01:22:00;;;;;;;3.33;2.30;;;;;;;14.74;74.33;100051.66;5055014;28;20425;-92
2022/09/06 01:24:48;;;;;;;2.97;2.20;;;;;;;14.77;74.18;100053.00;5054081;28;20021;-93
2022/09/06 01:27:45;;;;;;;4.07;2.25;;;;;;;14.80;73.94;100060.59;5037476;28;20029;-92
2022/09/06 01:30:12;;;;;;;4.93;2.17;;;;;;;14.87;72.79;100044.81;5020609;28;20032;-93
2022/09/06 01:33:06;;;;;;;5.13;2.70;;;;;;;14.84;72.41;100039.97;5004527;28;20549;-93
2022/09/06 01:35:35;;;;;;;3.53;2.33;;;;;;;15.07;71.62;100046.59;5005533;28;20053;-92
2022/09/06 01:38:01;;;;;;;4.78;2.30;;;;;;;15.24;71.03;100058.97;5037018;28;20085;-93
2022/09/06 01:40:27;;;;;;;3.15;2.13;;;;;;;15.14;70.68;100038.94;5002244;28;20025;-92
2022/09/06 01:42:52;;;;;;;2.97;1.98;;;;;;;15.26;70.77;100060.28;4984754;28;20511;-92
2022/09/06 01:45:19;;;;;;;7.88;2.78;;;;;;;15.19;70.70;100046.25;5001907;28;20025;-92
2022/09/06 01:48:04;;;;;;;3.40;1.90;;;;;;;15.32;70.30;100059.16;4984866;28;20103;-92
2022/09/06 01:50:47;;;;;;;2.85;1.95;;;;;;;15.28;70.11;100044.53;5016884;28;20051;-93
2022/09/06 01:53:37;;;;;;;4.13;2.33;;;;;;;15.29;70.25;100061.63;5016956;28;20040;-92
2022/09/06 01:56:03;;;;;;;2.10;1.73;;;;;;;15.22;70.36;100055.72;5016940;28;20037;-93
2022/09/06 01:58:55;;;;;;;2.97;2.03;;;;;;;15.23;69.82;100041.03;5017056;28;20476;-92
2022/09/06 02:01:24;;;;;;;2.55;2.00;;;;;;;15.15;70.22;100042.47;5003520;28;20555;-91
2022/09/06 02:04:27;;;;;;;2.55;1.75;;;;;;;14.93;71.46;100045.59;5000895;28;20087;-93
2022/09/06 02:06:58;;;;;;;2.72;2.22;;;;;;;14.67;71.87;100034.91;5000683;28;20036;-93
2022/09/06 02:09:24;;;;;;;4.55;2.00;;;;;;;14.67;71.87;100023.25;5001377;28;20033;-92
2022/09/06 02:11:52;;;;;;;5.18;2.40;;;;;;;14.86;71.86;100051.34;5000770;28;20036;-93
2022/09/06 02:14:35;;;;;;;5.00;2.08;;;;;;;14.63;73.63;100041.97;4984769;28;20029;-91
2022/09/06 02:17:00;;;;;;;3.88;2.45;;;;;;;14.41;74.30;100020.63;5000448;28;20052;-93
2022/09/06 02:19:26;;;;;;;4.10;2.30;;;;;;;14.57;74.26;100045.81;5016531;28;20053;-92
2022/09/06 02:21:51;;;;;;;3.65;2.30;;;;;;;14.43;74.86;100029.28;5015684;28;20032;-92
2022/09/06 02:24:19;;;;;;;3.25;2.22;;;;;;;14.33;75.55;100032.03;4983654;28;20075;-92
2022/09/06 02:26:45;;;;;;;3.55;2.60;;;;;;;14.28;75.80;100029.38;4996100;28;20032;-93
2022/09/06 02:29:10;;;;;;;5.57;2.90;;;;;;;14.18;76.05;100027.50;5019218;28;20032;-93
2022/09/06 02:32:07;;;;;;;6.18;2.80;;;;;;;14.27;76.03;100033.94;5003060;28;20029;-91
2022/09/06 02:34:33;;;;;;;4.60;2.72;;;;;;;14.11;76.17;100006.13;5017780;28;20033;-93
2022/09/06 02:36:59;;;;;;;3.88;2.65;;;;;;;14.24;76.21;100036.44;5003664;28;20025;-92
2022/09/06 02:39:24;;;;;;;2.88;2.17;;;;;;;14.26;75.91;100026.94;5019042;28;20029;-93
2022/09/06 02:41:50;;;;;;;5.30;2.15;;;;;;;14.25;76.14;100014.47;5019664;28;20384;-93
2022/09/06 02:44:15;;;;;;;4.97;2.67;;;;;;;14.22;76.34;100017.72;5020054;28;20094;-92
2022/09/06 02:46:40;;;;;;;3.88;2.50;;;;;;;14.30;76.10;100029.91;5002653;28;20029;-93
2022/09/06 02:49:06;;;;;;;2.95;2.40;;;;;;;14.23;76.10;100013.13;5019965;28;20032;-92
2022/09/06 02:51:38;;;;;;;3.53;2.40;;;;;;;14.19;76.43;100009.34;5020296;28;20469;-92
2022/09/06 02:54:04;;;;;;;4.65;2.50;;;;;;;14.25;76.35;100009.03;5020649;28;20021;-93
2022/09/06 02:56:30;;;;;;;2.72;2.10;;;;;;;14.32;75.74;100025.03;5019981;28;20029;-92
2022/09/06 02:58:55;;;;;;;3.47;2.40;;;;;;;14.28;76.15;100024.75;5019878;28;20056;-92
2022/09/06 03:01:21;;;;;;;4.78;2.40;;;;;;;14.18;76.17;100019.38;5018509;28;20117;-92
2022/09/06 03:03:46;;;;;;;5.13;2.38;;;;;;;14.34;75.98;100031.78;5002260;28;20051;-93
2022/09/06 03:06:12;;;;;;;5.20;2.60;;;;;;;14.21;75.94;100009.88;5019505;28;20028;-93
2022/09/06 03:08:37;;;;;;;5.55;2.10;;;;;;;14.23;76.57;100029.38;5018404;28;20029;-93
2022/09/06 03:11:03;;;;;;;3.00;2.00;;;;;;;14.10;76.99;100014.53;5018769;28;20036;-93
2022/09/06 03:13:28;;;;;;;4.57;2.60;;;;;;;14.30;76.67;100040.75;5018243;28;20475;-93
2022/09/06 03:15:56;;;;;;;4.15;2.50;;;;;;;14.21;76.63;100028.84;5018530;28;20051;-93
2022/09/06 03:18:25;;;;;;;6.28;2.30;;;;;;;14.19;77.18;100023.69;5001770;28;20193;-92
2022/09/06 03:20:51;;;;;;;3.30;2.33;;;;;;;14.11;77.71;100021.53;5019431;28;20041;-93
2022/09/06 03:23:17;;;;;;;2.70;2.28;;;;;;;14.12;77.92;100031.31;5018823;28;20026;-92
2022/09/06 03:25:43;;;;;;;4.75;2.38;;;;;;;14.05;77.31;100023.47;5019142;28;20499;-92
2022/09/06 03:28:09;;;;;;;4.28;3.00;;;;;;;14.05;77.42;100028.06;5017961;28;20025;-93
2022/09/06 03:30:37;;;;;;;3.33;2.70;;;;;;;14.03;78.07;100022.94;5015492;28;20029;-93
2022/09/06 03:33:02;;;;;;;3.90;2.70;;;;;;;13.94;77.54;100022.72;5001079;28;20025;-92
2022/09/06 03:35:28;;;;;;;3.88;2.65;;;;;;;14.00;77.43;100023.47;5003031;28;20048;-93
2022/09/06 03:37:56;;;;;;;4.85;2.60;;;;;;;13.88;78.05;100026.50;5002630;28;20033;-91
2022/09/06 03:40:21;;;;;;;5.38;2.70;;;;;;;13.95;77.92;100043.25;5001327;28;20021;-93
2022/09/06 03:42:49;;;;;;;3.55;2.60;;;;;;;13.87;77.39;100033.00;4983030;28;20037;-93
2022/09/06 03:45:15;;;;;;;7.70;2.58;;;;;;;13.88;77.49;100036.50;4966785;28;20053;-92
2022/09/06 03:47:40;;;;;;;4.75;2.58;;;;;;;13.93;77.45;100048.16;4982552;28;20026;-94
2022/09/06 03:50:06;;;;;;;6.65;2.70;;;;;;;13.83;77.75;100041.94;4966226;28;20064;-92
2022/09/06 03:52:32;;;;;;;4.75;2.53;;;;;;;13.81;78.20;100044.91;5003458;28;20024;-93
2022/09/06 03:54:57;;;;;;;3.53;2.50;;;;;;;13.81;78.13;100049.53;5004978;28;20032;-93
2022/09/06 03:57:23;;;;;;;5.20;2.70;;;;;;;13.82;78.41;100049.25;5021972;28;20021;-92
2022/09/06 03:59:48;;;;;;;3.38;2.30;;;;;;;13.79;78.29;100046.28;5005237;28;20029;-93
2022/09/06 04:02:14;;;;;;;5.47;2.58;;;;;;;13.79;78.19;100046.28;5022056;28;20475;-93
2022/09/06 04:04:39;;;;;;;7.40;2.72;;;;;;;13.83;78.36;100055.47;5022462;28;20543;-92
2022/09/06 04:07:05;;;;;;;4.65;2.80;;;;;;;13.70;78.01;100044.13;5021198;28;20090;-92
2022/09/06 04:09:30;;;;;;;6.03;2.67;;;;;;;13.71;77.88;100044.94;5022735;28;20029;-92
2022/09/06 04:11:56;;;;;;;6.63;2.50;;;;;;;13.75;78.04;100054.13;5022006;28;20032;-92
2022/09/06 04:14:21;;;;;;;3.28;2.33;;;;;;;13.86;78.02;100072.00;5022035;28;20021;-94
2022/09/06 04:16:47;;;;;;;5.72;2.80;;;;;;;13.72;77.87;100052.78;5005474;28;20044;-93
2022/09/06 04:19:12;;;;;;;3.88;2.60;;;;;;;13.79;77.90;100057.91;5021468;28;20074;-93
2022/09/06 04:21:38;;;;;;;3.10;2.72;;;;;;;13.86;77.71;100065.75;5021389;28;20025;-93
2022/09/06 04:24:03;;;;;;;2.97;2.47;;;;;;;13.88;78.02;100069.81;5005544;28;20017;-93
2022/09/06 04:26:29;;;;;;;4.15;2.65;;;;;;;13.88;77.64;100063.56;5021701;28;20021;-93
2022/09/06 04:28:54;;;;;;;4.55;2.45;;;;;;;14.02;77.58;100075.47;5005209;28;20051;-94
2022/09/06 04:31:20;;;;;;;6.25;2.60;;;;;;;13.91;77.48;100058.44;5021066;28;20028;-93
2022/09/06 04:33:45;;;;;;;7.78;3.10;;;;;;;13.99;77.27;100064.41;5004546;28;20119;-92
2022/09/06 04:36:11;;;;;;;5.95;3.00;;;;;;;14.08;77.46;100081.69;5021085;28;20020;-93
2022/09/06 04:38:41;;;;;;;3.53;2.65;;;;;;;14.08;77.40;100070.84;5021326;28;20044;-93
2022/09/06 04:41:08;;;;;;;4.00;2.70;;;;;;;14.11;77.15;100071.13;5021872;28;20024;-94
2022/09/06 04:43:33;;;;;;;5.25;3.03;;;;;;;14.02;76.77;100061.94;5020814;28;20017;-93
2022/09/06 04:46:25;;;;;;;5.05;2.90;;;;;;;14.12;76.71;100069.22;5021770;28;20028;-93
2022/09/06 04:48:52;;;;;;;4.03;2.80;;;;;;;14.15;76.56;100076.78;5021689;28;20056;-92
2022/09/06 04:51:17;;;;;;;10.57;4.45;;;;;;;14.18;76.63;100065.41;5020828;28;20029;-94
2022/09/06 04:53:46;;;;;;;4.70;3.13;;;;;;;14.30;76.41;100075.97;5021188;28;20021;-94
2022/09/06 04:56:16;;;;;;;3.83;3.10;;;;;;;14.23;76.73;100056.47;5021404;28;20021;-93
2022/09/06 04:58:42;;;;;;;3.72;2.70;;;;;;;14.29;76.68;100049.94;5021044;28;20029;-94
2022/09/06 05:01:08;;;;;;;7.00;2.90;;;;;;;14.41;76.47;100066.69;5021699;28;20028;-93
2022/09/06 05:03:33;;;;;;;3.67;2.90;;;;;;;14.47;76.39;100072.91;5021590;28;20017;-93
2022/09/06 05:06:10;;;;;;;7.00;3.28;;;;;;;14.58;75.99;100068.28;5021289;28;20033;-93
2022/09/06 05:08:37;;;;;;;5.20;3.20;;;;;;;14.60;75.88;100074.25;5005058;28;20029;-92
2022/09/06 05:11:02;;;;;;;4.55;3.10;;;;;;;14.60;75.34;100069.63;5021210;28;20024;-94
2022/09/06 05:13:28;;;;;;;7.00;3.42;;;;;;;14.69;75.19;100075.28;5020721;28;20020;-93
2022/09/06 05:15:53;;;;;;;5.88;3.60;;;;;;;14.83;74.58;100080.91;5020448;28;20082;-95
2022/09/06 05:18:19;;;;;;;9.25;2.95;;;;;;;14.83;74.40;100072.78;5021302;28;20106;-94
2022/09/06 05:20:50;;;;;;;9.02;3.30;;;;;;;15.00;74.05;100094.09;5013495;28;20491;-94
2022/09/06 05:23:16;;;;;;;8.30;4.15;;;;;;;14.93;74.03;100067.28;4965631;28;20028;-94
2022/09/06 05:25:45;;;;;;;9.70;3.55;;;;;;;15.04;73.51;100074.25;4966426;28;20053;-93
2022/09/06 05:28:10;;;;;;;4.78;3.10;;;;;;;15.10;74.00;100065.00;4965487;28;20064;-93
2022/09/06 05:30:36;;;;;;;6.35;2.60;;;;;;;15.29;72.78;100067.06;4965339;28;20033;-94
2022/09/06 05:33:01;;;;;;;3.83;2.42;;;;;;;15.33;70.73;100063.47;4965640;28;20025;-93
2022/09/06 05:35:27;;;;;;;8.43;2.60;;;;;;;15.17;71.25;100037.59;4965343;28;20030;-94
2022/09/06 05:37:52;;;;;;;2.90;2.30;;;;;;;15.40;70.15;100062.34;4965524;28;20029;-94
2022/09/06 05:40:18;;;;;;;7.57;2.10;;;;;;;15.50;69.02;100067.69;4965255;28;20030;-93
2022/09/06 05:42:43;;;;;;;4.22;2.40;;;;;;;15.35;69.66;100046.94;4965847;28;20044;-94
2022/09/06 05:45:09;;;;;;;4.85;2.40;;;;;;;15.44;69.79;100057.97;4965732;28;20025;-93
2022/09/06 05:47:34;;;;;;;5.30;2.75;;;;;;;15.39;70.22;100055.31;4965685;28;20030;-94
2022/09/06 05:50:01;;;;;;;4.07;2.30;;;;;;;15.61;69.51;100082.03;4964266;28;20032;-93
2022/09/06 05:52:27;;;;;;;5.32;2.30;;;;;;;15.55;68.69;100054.91;4981063;28;20472;-92
2022/09/06 05:54:52;;;;;;;5.93;2.00;;;;;;;15.80;68.05;100055.00;4965893;28;20030;-96
2022/09/06 05:57:18;;;;;;;3.13;2.20;;;;;;;15.76;68.24;100038.47;4967897;28;20502;-96
2022/09/06 05:59:44;;;;;;;2.92;2.13;;;;;;;16.06;67.59;100056.38;4970879;28;20040;-96
2022/09/06 06:02:09;;;;;;;9.88;2.50;;;;;;;16.05;67.27;100041.16;4970348;28;20022;-96
2022/09/06 06:04:40;;;;;;;4.28;2.72;;;;;;;16.13;68.58;100051.38;4970651;28;20026;-95
2022/09/06 06:07:06;;;;;;;4.72;2.80;;;;;;;16.28;68.62;100063.19;4971011;28;20061;-95
2022/09/06 06:09:31;;;;;;;7.25;2.38;;;;;;;16.24;68.77;100051.28;4968366;28;20419;-96
2022/09/06 06:11:57;;;;;;;6.30;2.47;;;;;;;16.30;67.85;100040.03;4969130;28;20025;-94
2022/09/06 06:14:24;;;;;;;5.30;2.53;;;;;;;16.35;67.41;100037.28;4952376;28;20130;-92
2022/09/06 06:16:49;;;;;;;7.18;3.08;;;;;;;16.68;67.29;100055.63;4967774;28;20057;-94
2022/09/06 06:19:15;;;;;;;3.83;2.22;;;;;;;16.99;65.88;100038.91;4967866;28;20596;-93
2022/09/06 06:21:42;;;;;;;5.22;2.17;;;;;;;17.00;65.53;100032.38;4983701;28;20034;-94
2022/09/06 06:24:07;;;;;;;3.92;2.33;;;;;;;17.35;64.23;100047.34;4984134;28;20107;-94
2022/09/06 06:26:34;;;;;;;3.03;2.05;;;;;;;17.64;63.67;100065.34;4983779;28;20018;-94
2022/09/06 06:29:02;;;;;;;6.95;2.70;;;;;;;17.63;62.57;100029.16;4984653;28;20079;-93
2022/09/06 06:31:29;;;;;;;2.78;2.15;;;;;;;17.83;62.84;100052.53;5000746;28;20100;-94
2022/09/06 06:33:54;;;;;;;5.50;2.47;;;;;;;17.86;62.04;100037.50;4984117;28;20483;-92
2022/09/06 06:36:22;;;;;;;3.60;2.00;;;;;;;18.13;60.19;100040.25;5000061;28;20028;-93
2022/09/06 06:38:48;;;;;;;3.95;2.10;;;;;;;18.23;59.26;100047.41;5000269;28;20035;-94
2022/09/06 06:41:15;;;;;;;4.40;2.10;;;;;;;18.55;58.55;100041.03;4984164;28;20033;-94
2022/09/06 06:43:40;;;;;;;2.65;1.70;;;;;;;18.46;57.95;100022.97;4984599;28;20434;-94
2022/09/06 06:46:07;;;;;;;12.25;10.95;;;;;;;18.25;58.71;100023.38;4983578;28;20128;-94
2022/09/06 06:48:34;;;;;;;7.15;4.15;;;;;;;18.48;59.10;100034.38;4984228;28;20109;-92
2022/09/06 06:51:05;;;;;;;9.05;3.20;;;;;;;18.64;57.69;100054.75;4990725;28;20039;-96
2022/09/06 06:53:31;;;;;;;3.43;2.10;;;;;;;18.50;56.93;100027.50;5000525;28;20017;-95
2022/09/06 06:55:57;;;;;;;2.72;2.13;;;;;;;18.68;57.43;100042.13;5000832;28;20032;-93
2022/09/06 06:58:26;;;;;;;5.35;2.25;;;;;;;18.76;57.22;100040.59;4984762;28;20021;-94
2022/09/06 07:00:51;;;;;;;3.65;2.55;;;;;;;18.83;56.94;100037.47;4982807;28;20397;-92
2022/09/06 07:03:17;;;;;;;5.15;3.05;;;;;;;18.94;58.42;100047.03;5000559;28;20022;-92
2022/09/06 07:05:43;;;;;;;4.47;2.60;;;;;;;18.95;58.04;100054.13;4983963;28;20029;-94
2022/09/06 07:08:09;;;;;;;2.47;2.08;;;;;;;18.95;57.78;100035.03;5006612;28;20373;-94
2022/09/06 07:10:35;;;;;;;3.75;2.25;;;;;;;19.02;57.08;100056.44;4987896;28;20133;-90
2022/09/06 07:13:03;;;;;;;5.72;4.22;;;;;;;19.08;57.53;100039.63;4986258;28;20029;-91
2022/09/06 07:15:28;;;;;;;8.65;5.45;;;;;;;19.42;56.67;100051.09;5002763;28;20037;-92
2022/09/06 07:17:54;;;;;;;4.10;2.42;;;;;;;19.43;56.26;100059.00;4988730;28;20415;-92
2022/09/06 07:20:26;;;;;;;5.03;2.60;;;;;;;19.59;55.43;100049.31;5006798;28;20029;-95
2022/09/06 07:22:59;;;;;;;3.42;2.35;;;;;;;19.79;54.32;100026.13;5022978;28;20041;-91
2022/09/06 07:25:25;;;;;;;7.35;4.53;;;;;;;19.88;54.69;100039.03;5004898;28;20049;-92
2022/09/06 07:28:02;;;;;;;7.75;3.08;;;;;;;19.96;55.36;100030.06;5003481;28;20533;-91
2022/09/06 07:30:29;;;;;;;3.78;2.30;;;;;;;20.08;54.83;100048.59;5004345;28;20094;-91
2022/09/06 07:32:54;;;;;;;3.65;1.92;;;;;;;20.05;54.85;100041.06;5021842;28;20035;-93
2022/09/06 07:35:20;;;;;;;4.90;1.92;;;;;;;20.31;55.29;100041.13;5022628;28;20024;-92
2022/09/06 07:37:55;;;;;;;6.85;2.05;;;;;;;20.49;54.50;100045.53;5021505;28;20055;-91
2022/09/06 07:40:22;;;;;;;4.20;2.15;;;;;;;20.49;54.29;100025.56;5022315;28;20032;-92
2022/09/06 07:42:47;;;;;;;2.97;2.08;;;;;;;20.79;53.45;100053.97;5006585;28;20087;-91
2022/09/06 07:45:13;;;;;;;3.88;2.83;;;;;;;20.75;53.72;100031.94;5006417;28;20029;-93
2022/09/06 07:47:38;;;;;;;5.03;2.50;;;;;;;20.93;53.00;100027.25;5021648;28;20029;-91
2022/09/06 07:50:04;;;;;;;3.95;2.45;;;;;;;21.09;52.77;100027.59;5022074;28;20028;-93
2022/09/06 07:52:30;;;;;;;4.57;2.80;;;;;;;21.34;52.39;100042.38;5022340;28;20033;-92
2022/09/06 07:54:55;;;;;;;5.85;2.30;;;;;;;21.44;51.19;100040.47;5005649;28;20410;-92
2022/09/06 07:57:23;;;;;;;4.82;2.03;;;;;;;21.41;50.65;100028.19;5006622;28;20124;-93
2022/09/06 07:59:49;;;;;;;4.80;2.20;;;;;;;21.49;48.93;100008.22;5021129;28;20033;-92
2022/09/06 08:02:29;;;;;;;3.78;2.33;;;;;;;21.52;49.14;100007.56;5038366;28;20056;-92
2022/09/06 08:05:28;;;;;;;;;;;;;;;;;;;;;
2022/09/06 08:08:09;;;;;;;2.97;2.15;;;;;;;21.96;46.67;100013.72;5040536;28;20033;-92
2022/09/06 08:10:35;;;;;;;3.13;2.00;;;;;;;22.05;45.98;100035.59;5021927;28;20044;-93
2022/09/06 08:13:00;;;;;;;3.83;2.50;;;;;;;22.11;46.31;100034.28;5021505;28;20033;-94
2022/09/06 08:15:28;;;;;;;2.65;1.90;;;;;;;22.15;45.21;100018.00;5004984;28;20044;-93
2022/09/06 08:17:54;;;;;;;3.20;1.50;;;;;;;22.35;43.63;100025.50;5021586;28;20064;-95
2022/09/06 08:20:19;;;;;;;4.00;1.67;;;;;;;22.34;42.18;100015.63;5022160;28;20475;-93
2022/09/06 08:22:45;;;;;;;3.90;2.65;;;;;;;22.50;43.89;100023.31;5004510;28;20028;-93
2022/09/06 08:25:13;;;;;;;3.28;2.38;;;;;;;22.54;44.43;100022.31;5021106;28;20036;-95
2022/09/06 08:27:39;;;;;;;4.10;2.30;;;;;;;22.52;42.50;100007.31;5005539;28;20032;-93
2022/09/06 08:30:05;;;;;;;4.63;2.10;;;;;;;22.51;41.22;100011.97;5020628;28;20033;-92
2022/09/06 08:32:33;;;;;;;2.72;1.80;;;;;;;22.55;42.00;100007.44;5020741;28;20059;-93
2022/09/06 08:34:58;;;;;;;4.53;3.05;;;;;;;22.80;41.57;100026.81;5004099;28;20029;-93
2022/09/06 08:37:24;;;;;;;5.60;2.67;;;;;;;22.71;40.55;99990.38;5020400;28;20545;-93
2022/09/06 08:39:52;;;;;;;4.05;2.22;;;;;;;22.83;39.56;99990.44;5004163;28;20025;-94
2022/09/06 08:42:18;;;;;;;2.55;1.70;;;;;;;22.72;39.06;99979.06;5003731;28;20024;-94
2022/09/06 08:44:50;;;;;;;4.03;1.70;;;;;;;22.98;38.85;99995.31;5020988;28;20033;-94
2022/09/06 08:47:17;;;;;;;5.25;3.83;;;;;;;22.97;37.85;99993.72;5020028;28;20033;-93
2022/09/06 08:49:45;;;;;;;5.80;2.25;;;;;;;23.12;37.94;99994.28;5019753;28;20048;-93
2022/09/06 08:52:15;;;;;;;4.97;2.15;;;;;;;23.24;37.80;100007.22;5020498;28;20025;-92
2022/09/06 08:54:56;;;;;;;4.00;2.30;;;;;;;23.47;37.13;100008.47;5053184;28;20112;-95
2022/09/06 08:57:24;;;;;;;2.75;1.73;;;;;;;23.53;36.40;100000.78;5053088;28;20765;-95
2022/09/06 08:59:58;;;;;;;2.10;1.40;;;;;;;23.57;35.45;99988.81;5053538;28;20055;-95
2022/09/06 09:02:23;;;;;;;2.30;1.60;;;;;;;23.66;35.10;99980.44;4980945;28;20042;-94
2022/09/06 09:04:53;;;;;;;5.22;1.90;;;;;;;23.78;36.49;99979.66;4981826;28;20455;-94
2022/09/06 09:07:53;;;;;;;2.53;1.55;;;;;;;24.07;34.96;99994.34;4977885;28;20051;-95
2022/09/06 09:10:29;;;;;;;3.05;1.92;;;;;;;24.02;36.10;100003.66;4950202;28;20038;-95
2022/09/06 09:12:55;;;;;;;2.67;1.77;;;;;;;23.91;35.41;99975.78;4961278;28;20444;-94
2022/09/06 09:15:23;;;;;;;2.70;1.95;;;;;;;24.12;35.14;99969.38;4977780;28;20030;-93
2022/09/06 09:17:49;;;;;;;3.40;2.15;;;;;;;24.27;35.45;99960.41;4964016;28;20038;-93
2022/09/06 09:20:18;;;;;;;4.95;2.20;;;;;;;24.40;34.97;99947.41;4963393;28;20026;-94
2022/09/06 09:22:47;;;;;;;2.50;1.65;;;;;;;24.65;35.17;99959.19;4979821;28;20088;-95
2022/09/06 09:25:18;;;;;;;2.80;1.60;;;;;;;24.79;35.02;99967.06;4964258;28;20096;-94
2022/09/06 09:27:46;;;;;;;5.43;2.13;;;;;;;24.95;33.93;99939.59;4964100;28;20037;-94
2022/09/06 09:30:12;;;;;;;2.97;1.60;;;;;;;24.88;33.55;99953.16;4995691;28;20452;-94
2022/09/06 09:32:39;;;;;;;4.45;1.80;;;;;;;24.61;34.22;99928.00;4972197;28;20037;-92
2022/09/06 09:35:20;;;;;;;3.22;2.00;;;;;;;24.99;34.45;99957.03;5019530;28;20025;-93
2022/09/06 09:37:46;;;;;;;5.38;3.63;;;;;;;25.12;34.38;99947.53;5053117;28;20106;-92
2022/09/06 09:40:16;;;;;;;3.83;2.28;;;;;;;25.43;34.29;99957.03;5019031;28;20104;-92
2022/09/06 09:42:42;;;;;;;5.77;1.90;;;;;;;25.31;34.31;99941.38;4996776;28;20026;-92
2022/09/06 09:45:26;;;;;;;5.15;2.00;;;;;;;25.44;33.71;99936.56;4963537;28;20324;-92
2022/09/06 09:48:48;;;;;;;5.55;1.90;;;;;;;25.44;34.24;99922.78;4963779;28;20113;-93
2022/09/06 09:51:47;;;;;;;7.15;3.38;;;;;;;25.37;33.26;99936.41;4949649;28;20059;-93
2022/09/06 09:54:14;;;;;;;6.93;4.30;;;;;;;25.64;34.22;99931.16;4936773;28;20118;-92
2022/09/06 09:56:46;;;;;;;2.45;1.65;;;;;;;25.60;32.73;99936.56;4979156;28;20062;-92
2022/09/06 09:59:25;;;;;;;2.35;1.60;;;;;;;25.83;33.33;99936.75;4979304;28;20053;-92
2022/09/06 10:01:55;;;;;;;3.10;1.60;;;;;;;25.80;32.98;99932.75;4978124;28;20061;-94
2022/09/06 10:04:45;;;;;;;3.20;1.77;;;;;;;25.65;32.43;99917.03;4963897;28;20551;-93
2022/09/06 10:07:21;;;;;;;2.83;1.80;;;;;;;25.62;33.24;99934.28;4981205;28;20034;-93
2022/09/06 10:10:09;;;;;;;4.15;1.58;;;;;;;25.63;32.44;99938.66;4979186;28;20173;-93
2022/09/06 10:12:39;;;;;;;3.08;1.80;;;;;;;25.37;33.19;99928.91;4981359;28;20034;-91
2022/09/06 10:15:06;;;;;;;2.75;1.80;;;;;;;25.45;33.50;99918.09;5002786;28;20065;-91
2022/09/06 10:17:49;;;;;;;3.97;2.00;;;;;;;25.37;33.73;99930.88;4981730;28;20109;-92
2022/09/06 10:20:15;;;;;;;3.67;1.83;;;;;;;25.37;33.67;99928.13;4963582;28;20137;-93
2022/09/06 10:22:45;;;;;;;2.05;1.60;;;;;;;25.46;34.21;99937.00;4964937;28;20100;-93
2022/09/06 10:25:37;;;;;;;2.30;1.58;;;;;;;25.45;33.22;99937.38;5022359;28;20029;-92
2022/09/06 10:28:35;;;;;;;2.90;1.80;;;;;;;25.47;33.86;99941.38;5008496;28;20416;-93
2022/09/06 10:31:00;;;;;;;3.00;1.85;;;;;;;25.34;33.55;99935.16;4978819;28;20033;-92
2022/09/06 10:33:48;;;;;;;6.50;3.58;;;;;;;25.26;34.57;99916.03;5013112;28;20032;-93
2022/09/06 10:36:16;;;;;;;2.60;1.92;;;;;;;25.31;34.90;99924.81;5014667;28;20109;-94
2022/09/06 10:39:17;;;;;;;3.08;1.63;;;;;;;25.14;35.03;99919.63;5001906;28;20457;-93
2022/09/06 10:41:47;;;;;;;;;;;;;;;24.95;33.93;99923.06;5032501;28;20110;-93
2022/09/06 10:44:30;;;;;;;5.30;1.70;;;;;;;25.06;34.22;99915.88;5039212;28;19955;-92
2022/09/06 10:47:08;;;;;;;3.75;2.08;;;;;;;25.16;34.37;99911.81;5055100;28;20415;-93
2022/09/06 10:49:36;;;;;;;2.38;1.85;;;;;;;25.23;35.26;99902.94;5023153;28;20028;-95
2022/09/06 10:52:02;;;;;;;2.53;1.60;;;;;;;25.14;34.96;99895.63;5006875;28;20079;-93
2022/09/06 10:54:28;;;;;;;3.60;2.28;;;;;;;25.23;34.65;99891.91;5023769;28;20017;-93
2022/09/06 10:56:59;;;;;;;3.83;2.00;;;;;;;25.34;34.73;99904.03;5021957;28;20025;-93
2022/09/06 10:59:25;;;;;;;2.30;1.60;;;;;;;25.37;34.38;99906.06;5022773;28;20039;-93
2022/09/06 11:02:18;;;;;;;3.78;1.70;;;;;;;25.20;34.31;99898.91;5054864;28;20120;-93
2022/09/06 11:04:45;;;;;;;3.25;1.70;;;;;;;25.50;33.79;99902.06;5041093;28;20107;-94
2022/09/06 11:07:33;;;;;;;2.28;1.73;;;;;;;25.51;33.83;99878.84;5021880;28;20459;-93
2022/09/06 11:10:13;;;;;;;2.35;1.60;;;;;;;25.75;33.38;99897.16;5023373;28;20086;-95
2022/09/06 11:12:57;;;;;;;2.60;1.50;;;;;;;25.86;33.05;99900.19;5055935;28;20124;-94
2022/09/06 11:15:23;;;;;;;5.00;1.70;;;;;;;25.84;32.81;99871.31;5055008;28;20027;-93
2022/09/06 11:18:28;;;;;;;3.15;1.75;;;;;;;25.96;33.34;99876.75;5022027;28;20029;-93
2022/09/06 11:21:14;;;;;;;3.10;2.30;;;;;;;26.11;33.84;99889.72;5008876;28;20117;-92
2022/09/06 11:24:12;;;;;;;4.50;2.65;;;;;;;26.28;33.60;99887.72;5054841;28;20056;-93
2022/09/06 11:26:50;;;;;;;2.50;1.55;;;;;;;26.29;33.17;99894.81;5001736;28;20408;-93
2022/09/06 11:29:22;;;;;;;2.70;1.60;;;;;;;26.21;32.78;99883.63;4998561;28;20089;-93
2022/09/06 11:31:53;;;;;;;3.15;2.22;;;;;;;26.27;32.89;99878.63;4978710;28;20033;-93
2022/09/06 11:34:26;;;;;;;3.15;2.20;;;;;;;26.32;33.41;99861.78;5001942;28;20359;-93
2022/09/06 11:37:02;;;;;;;2.92;1.73;;;;;;;26.55;32.42;99886.69;5015201;28;20111;-94
2022/09/06 11:39:31;;;;;;;2.58;1.73;;;;;;;26.24;32.93;99871.06;5022146;28;20471;-93
2022/09/06 11:41:57;;;;;;;4.88;1.90;;;;;;;26.26;33.61;99863.22;5037587;28;20053;-92
2022/09/06 11:44:57;;;;;;;2.38;1.70;;;;;;;26.35;33.22;99893.38;5005421;28;20568;-93